sensor_id;sensor_type;location;lat;lon;timestamp;pressure;altitude;pressure_sealevel;temperature;humidity
20228;BME280;12195;55.790;37.572;2023-02-14T00:01:10;98598.88;;;2.37;78.66
20228;BME280;12195;55.790;37.572;2023-02-14T00:03:43;98600.67;;;2.35;79.00
20228;BME280;12195;55.790;37.572;2023-02-14T00:06:15;98602.23;;;2.39;79.02
20228;BME280;12195;55.790;37.572;2023-02-14T00:08:47;98599.84;;;2.34;79.38
20228;BME280;12195;55.790;37.572;2023-02-14T00:11:20;98605.99;;;2.32;79.61
20228;BME280;12195;55.790;37.572;2023-02-14T00:13:52;98600.61;;;2.36;79.79
20228;BME280;12195;55.790;37.572;2023-02-14T00:16:42;98615.19;;;2.39;79.92
20228;BME280;12195;55.790;37.572;2023-02-14T00:19:17;98613.45;;;2.39;80.01
20228;BME280;12195;55.790;37.572;2023-02-14T00:21:49;98604.00;;;2.38;79.85
20228;BME280;12195;55.790;37.572;2023-02-14T00:24:24;98606.39;;;2.43;79.51
20228;BME280;12195;55.790;37.572;2023-02-14T00:26:56;98606.27;;;2.46;79.43
20228;BME280;12195;55.790;37.572;2023-02-14T00:29:30;98617.66;;;2.42;79.38
20228;BME280;12195;55.790;37.572;2023-02-14T00:32:03;98614.64;;;2.52;78.76
20228;BME280;12195;55.790;37.572;2023-02-14T00:34:35;98612.22;;;2.48;78.66
20228;BME280;12195;55.790;37.572;2023-02-14T00:37:07;98606.50;;;2.40;79.17
20228;BME280;12195;55.790;37.572;2023-02-14T00:39:39;98616.16;;;2.36;79.50
20228;BME280;12195;55.790;37.572;2023-02-14T00:42:11;98621.33;;;2.36;79.97
20228;BME280;12195;55.790;37.572;2023-02-14T00:44:47;98623.98;;;2.35;80.26
20228;BME280;12195;55.790;37.572;2023-02-14T00:47:19;98618.80;;;2.35;80.41
20228;BME280;12195;55.790;37.572;2023-02-14T00:49:51;98630.92;;;2.34;80.61
20228;BME280;12195;55.790;37.572;2023-02-14T00:52:23;98632.66;;;2.34;80.82
20228;BME280;12195;55.790;37.572;2023-02-14T00:54:55;98630.72;;;2.39;80.71
20228;BME280;12195;55.790;37.572;2023-02-14T00:57:28;98628.02;;;2.42;80.51
20228;BME280;12195;55.790;37.572;2023-02-14T01:00:00;98623.70;;;2.42;80.20
20228;BME280;12195;55.790;37.572;2023-02-14T01:02:32;98620.96;;;2.45;79.79
20228;BME280;12195;55.790;37.572;2023-02-14T01:05:04;98626.09;;;2.47;79.64
20228;BME280;12195;55.790;37.572;2023-02-14T01:07:38;98636.55;;;2.44;79.50
20228;BME280;12195;55.790;37.572;2023-02-14T01:10:12;98620.31;;;2.40;79.70
20228;BME280;12195;55.790;37.572;2023-02-14T01:12:44;98623.75;;;2.41;79.66
20228;BME280;12195;55.790;37.572;2023-02-14T01:15:16;98633.25;;;2.40;79.66
20228;BME280;12195;55.790;37.572;2023-02-14T01:18:06;98635.25;;;2.34;79.87
20228;BME280;12195;55.790;37.572;2023-02-14T01:20:38;98633.62;;;2.31;80.12
20228;BME280;12195;55.790;37.572;2023-02-14T01:23:10;98643.27;;;2.28;80.29
20228;BME280;12195;55.790;37.572;2023-02-14T01:25:43;98643.13;;;2.31;80.08
20228;BME280;12195;55.790;37.572;2023-02-14T01:28:15;98663.84;;;2.31;80.08
20228;BME280;12195;55.790;37.572;2023-02-14T01:30:47;98646.13;;;2.20;80.25
20228;BME280;12195;55.790;37.572;2023-02-14T01:33:21;98651.50;;;2.16;80.31
20228;BME280;12195;55.790;37.572;2023-02-14T01:35:53;98646.43;;;2.13;80.43
20228;BME280;12195;55.790;37.572;2023-02-14T01:38:25;98651.41;;;2.17;80.37
20228;BME280;12195;55.790;37.572;2023-02-14T01:40:57;98662.02;;;2.11;80.57
20228;BME280;12195;55.790;37.572;2023-02-14T01:43:31;98655.11;;;2.12;80.58
20228;BME280;12195;55.790;37.572;2023-02-14T01:46:06;98658.52;;;2.12;80.63
20228;BME280;12195;55.790;37.572;2023-02-14T01:48:39;98651.50;;;2.16;80.44
20228;BME280;12195;55.790;37.572;2023-02-14T01:51:12;98657.69;;;2.12;80.53
20228;BME280;12195;55.790;37.572;2023-02-14T01:53:46;98667.91;;;2.15;80.36
20228;BME280;12195;55.790;37.572;2023-02-14T01:56:22;98665.32;;;2.15;80.18
20228;BME280;12195;55.790;37.572;2023-02-14T01:58:56;98680.75;;;2.18;80.13
20228;BME280;12195;55.790;37.572;2023-02-14T02:01:30;98670.74;;;2.09;80.22
20228;BME280;12195;55.790;37.572;2023-02-14T02:04:18;98665.52;;;2.10;80.00
20228;BME280;12195;55.790;37.572;2023-02-14T02:06:53;98667.14;;;2.13;80.16
20228;BME280;12195;55.790;37.572;2023-02-14T02:09:32;98666.73;;;2.00;80.14
20228;BME280;12195;55.790;37.572;2023-02-14T02:12:05;98680.02;;;1.91;80.40
20228;BME280;12195;55.790;37.572;2023-02-14T02:14:39;98687.63;;;1.96;80.44
20228;BME280;12195;55.790;37.572;2023-02-14T02:29:01;98682.05;;;1.83;81.45
20228;BME280;12195;55.790;37.572;2023-02-14T02:40:13;98691.33;;;1.89;81.47
20228;BME280;12195;55.790;37.572;2023-02-14T02:42:47;98697.17;;;1.94;81.61
20228;BME280;12195;55.790;37.572;2023-02-14T02:48:15;98681.50;;;1.98;81.87
20228;BME280;12195;55.790;37.572;2023-02-14T02:50:48;98689.98;;;2.02;81.92
20228;BME280;12195;55.790;37.572;2023-02-14T02:53:47;98690.73;;;2.05;82.01
20228;BME280;12195;55.790;37.572;2023-02-14T02:56:24;98689.02;;;2.04;82.00
20228;BME280;12195;55.790;37.572;2023-02-14T02:59:23;98686.33;;;2.07;81.95
20228;BME280;12195;55.790;37.572;2023-02-14T03:04:50;98688.81;;;2.10;81.99
20228;BME280;12195;55.790;37.572;2023-02-14T03:07:32;98685.31;;;2.11;82.04
20228;BME280;12195;55.790;37.572;2023-02-14T03:21:57;98686.38;;;2.29;81.63
20228;BME280;12195;55.790;37.572;2023-02-14T03:24:34;98685.77;;;2.22;81.71
20228;BME280;12195;55.790;37.572;2023-02-14T03:27:19;98685.71;;;2.24;81.61
20228;BME280;12195;55.790;37.572;2023-02-14T03:32:57;98689.02;;;2.27;81.61
20228;BME280;12195;55.790;37.572;2023-02-14T03:35:37;98691.50;;;2.30;81.39
20228;BME280;12195;55.790;37.572;2023-02-14T03:38:15;98699.92;;;2.35;81.13
20228;BME280;12195;55.790;37.572;2023-02-14T03:40:57;98701.80;;;2.32;81.09
20228;BME280;12195;55.790;37.572;2023-02-14T03:43:36;98699.13;;;2.33;80.89
20228;BME280;12195;55.790;37.572;2023-02-14T03:46:17;98703.48;;;2.33;81.11
20228;BME280;12195;55.790;37.572;2023-02-14T03:48:50;98698.05;;;2.39;80.88
20228;BME280;12195;55.790;37.572;2023-02-14T03:51:24;98710.28;;;2.35;80.85
20228;BME280;12195;55.790;37.572;2023-02-14T03:53:57;98715.47;;;2.35;80.91
20228;BME280;12195;55.790;37.572;2023-02-14T03:56:58;98727.70;;;2.32;80.86
20228;BME280;12195;55.790;37.572;2023-02-14T03:59:27;98713.09;;;2.29;80.56
20228;BME280;12195;55.790;37.572;2023-02-14T04:02:26;98728.30;;;2.15;80.74
20228;BME280;12195;55.790;37.572;2023-02-14T04:04:53;98728.55;;;2.09;80.78
20228;BME280;12195;55.790;37.572;2023-02-14T04:07:26;98726.40;;;1.97;80.60
20228;BME280;12195;55.790;37.572;2023-02-14T04:09:59;98736.47;;;2.05;80.72
20228;BME280;12195;55.790;37.572;2023-02-14T04:12:31;98729.38;;;1.87;80.45
20228;BME280;12195;55.790;37.572;2023-02-14T04:15:05;98734.75;;;1.81;80.70
20228;BME280;12195;55.790;37.572;2023-02-14T04:17:37;98735.85;;;1.74;81.09
20228;BME280;12195;55.790;37.572;2023-02-14T04:20:28;98731.81;;;1.67;81.35
20228;BME280;12195;55.790;37.572;2023-02-14T04:23:00;98733.69;;;1.62;81.50
20228;BME280;12195;55.790;37.572;2023-02-14T04:25:33;98744.36;;;1.53;81.81
20228;BME280;12195;55.790;37.572;2023-02-14T04:28:06;98726.53;;;1.45;81.99
20228;BME280;12195;55.790;37.572;2023-02-14T04:30:38;98740.55;;;1.38;82.34
20228;BME280;12195;55.790;37.572;2023-02-14T04:33:10;98744.13;;;1.34;82.62
20228;BME280;12195;55.790;37.572;2023-02-14T04:35:42;98756.06;;;1.38;82.78
20228;BME280;12195;55.790;37.572;2023-02-14T04:38:14;98753.38;;;1.41;82.79
20228;BME280;12195;55.790;37.572;2023-02-14T04:40:48;98751.44;;;1.48;82.69
20228;BME280;12195;55.790;37.572;2023-02-14T04:43:21;98756.56;;;1.49;82.73
20228;BME280;12195;55.790;37.572;2023-02-14T04:45:54;98759.09;;;1.51;82.77
20228;BME280;12195;55.790;37.572;2023-02-14T04:48:27;98765.05;;;1.53;83.03
20228;BME280;12195;55.790;37.572;2023-02-14T04:51:00;98765.63;;;1.61;83.08
20228;BME280;12195;55.790;37.572;2023-02-14T04:53:36;98773.98;;;1.69;82.88
20228;BME280;12195;55.790;37.572;2023-02-14T04:56:10;98783.23;;;1.76;82.83
20228;BME280;12195;55.790;37.572;2023-02-14T04:58:42;98804.96;;;1.95;82.08
20228;BME280;12195;55.790;37.572;2023-02-14T05:01:14;98783.63;;;1.88;81.52
20228;BME280;12195;55.790;37.572;2023-02-14T05:03:47;98783.81;;;1.84;81.35
20228;BME280;12195;55.790;37.572;2023-02-14T05:06:20;98790.72;;;1.83;81.53
20228;BME280;12195;55.790;37.572;2023-02-14T05:08:52;98788.94;;;1.85;81.63
20228;BME280;12195;55.790;37.572;2023-02-14T05:11:26;98799.91;;;1.92;81.48
20228;BME280;12195;55.790;37.572;2023-02-14T05:13:59;98802.17;;;2.01;81.39
20228;BME280;12195;55.790;37.572;2023-02-14T05:16:31;98806.77;;;1.93;81.68
20228;BME280;12195;55.790;37.572;2023-02-14T05:19:03;98806.73;;;1.94;81.70
20228;BME280;12195;55.790;37.572;2023-02-14T05:21:36;98813.30;;;2.03;81.79
20228;BME280;12195;55.790;37.572;2023-02-14T05:24:08;98815.47;;;2.15;80.93
20228;BME280;12195;55.790;37.572;2023-02-14T05:26:41;98816.66;;;2.06;80.85
20228;BME280;12195;55.790;37.572;2023-02-14T05:29:13;98821.83;;;2.06;80.74
20228;BME280;12195;55.790;37.572;2023-02-14T05:32:04;98822.41;;;2.14;80.31
20228;BME280;12195;55.790;37.572;2023-02-14T05:34:37;98818.86;;;2.17;80.05
20228;BME280;12195;55.790;37.572;2023-02-14T05:37:09;98822.41;;;2.14;80.18
20228;BME280;12195;55.790;37.572;2023-02-14T05:39:41;98827.16;;;2.26;79.56
20228;BME280;12195;55.790;37.572;2023-02-14T05:42:14;98824.43;;;2.29;78.98
20228;BME280;12195;55.790;37.572;2023-02-14T05:44:47;98825.34;;;2.28;78.83
20228;BME280;12195;55.790;37.572;2023-02-14T05:47:19;98824.38;;;2.31;78.85
20228;BME280;12195;55.790;37.572;2023-02-14T05:49:51;98832.72;;;2.39;78.69
20228;BME280;12195;55.790;37.572;2023-02-14T05:52:24;98830.18;;;2.37;78.78
20228;BME280;12195;55.790;37.572;2023-02-14T05:54:56;98838.47;;;2.47;78.36
20228;BME280;12195;55.790;37.572;2023-02-14T05:57:30;98833.29;;;2.47;78.44
20228;BME280;12195;55.790;37.572;2023-02-14T06:00:04;98830.36;;;2.56;78.05
20228;BME280;12195;55.790;37.572;2023-02-14T06:02:38;98830.98;;;2.62;77.84
20228;BME280;12195;55.790;37.572;2023-02-14T06:05:11;98830.05;;;2.65;77.53
20228;BME280;12195;55.790;37.572;2023-02-14T06:07:46;98833.30;;;2.70;77.53
20228;BME280;12195;55.790;37.572;2023-02-14T06:10:22;98828.06;;;2.71;77.31
20228;BME280;12195;55.790;37.572;2023-02-14T06:12:54;98827.21;;;2.71;77.36
20228;BME280;12195;55.790;37.572;2023-02-14T06:15:27;98824.52;;;2.74;77.65
20228;BME280;12195;55.790;37.572;2023-02-14T06:17:59;98840.57;;;2.83;77.27
20228;BME280;12195;55.790;37.572;2023-02-14T06:20:32;98827.77;;;2.79;77.36
20228;BME280;12195;55.790;37.572;2023-02-14T06:23:04;98834.64;;;2.80;77.42
20228;BME280;12195;55.790;37.572;2023-02-14T06:25:37;98838.13;;;2.79;77.10
20228;BME280;12195;55.790;37.572;2023-02-14T06:28:09;98839.95;;;2.77;77.15
20228;BME280;12195;55.790;37.572;2023-02-14T06:30:41;98842.46;;;2.78;76.94
20228;BME280;12195;55.790;37.572;2023-02-14T06:33:15;98853.17;;;2.69;77.64
20228;BME280;12195;55.790;37.572;2023-02-14T06:35:48;98853.17;;;2.69;77.64
20228;BME280;12195;55.790;37.572;2023-02-14T06:38:21;98850.53;;;2.71;77.79
20228;BME280;12195;55.790;37.572;2023-02-14T06:41:00;98843.42;;;2.76;77.81
20228;BME280;12195;55.790;37.572;2023-02-14T06:43:30;98856.12;;;2.83;77.74
20228;BME280;12195;55.790;37.572;2023-02-14T06:46:03;98850.08;;;2.83;78.11
20228;BME280;12195;55.790;37.572;2023-02-14T06:48:35;98857.55;;;2.90;77.77
20228;BME280;12195;55.790;37.572;2023-02-14T06:51:08;98852.38;;;2.90;77.75
20228;BME280;12195;55.790;37.572;2023-02-14T06:53:41;98858.17;;;2.97;77.43
20228;BME280;12195;55.790;37.572;2023-02-14T06:56:13;98865.17;;;2.95;77.69
20228;BME280;12195;55.790;37.572;2023-02-14T06:58:46;98877.47;;;2.90;77.62
20228;BME280;12195;55.790;37.572;2023-02-14T07:01:18;98880.94;;;2.89;77.94
20228;BME280;12195;55.790;37.572;2023-02-14T07:03:50;98869.50;;;2.94;77.71
20228;BME280;12195;55.790;37.572;2023-02-14T07:06:23;98871.93;;;2.99;77.44
20228;BME280;12195;55.790;37.572;2023-02-14T07:08:55;98872.84;;;2.98;77.56
20228;BME280;12195;55.790;37.572;2023-02-14T07:11:28;98871.22;;;2.95;77.68
20228;BME280;12195;55.790;37.572;2023-02-14T07:14:00;98883.98;;;3.00;77.69
20228;BME280;12195;55.790;37.572;2023-02-14T07:16:33;98885.45;;;3.07;77.75
20228;BME280;12195;55.790;37.572;2023-02-14T07:19:05;98890.28;;;3.16;77.35
20228;BME280;12195;55.790;37.572;2023-02-14T07:21:38;98887.69;;;3.16;77.46
20228;BME280;12195;55.790;37.572;2023-02-14T07:24:10;98891.69;;;3.24;76.92
20228;BME280;12195;55.790;37.572;2023-02-14T07:26:42;98896.80;;;3.26;76.93
20228;BME280;12195;55.790;37.572;2023-02-14T07:29:14;98891.39;;;3.32;76.93
20228;BME280;12195;55.790;37.572;2023-02-14T07:31:47;98889.45;;;3.37;76.99
20228;BME280;12195;55.790;37.572;2023-02-14T07:34:19;98892.59;;;3.45;77.11
20228;BME280;12195;55.790;37.572;2023-02-14T07:36:52;98899.23;;;3.52;76.81
20228;BME280;12195;55.790;37.572;2023-02-14T07:39:25;98904.06;;;3.61;77.01
20228;BME280;12195;55.790;37.572;2023-02-14T07:41:57;98903.58;;;3.73;75.98
20228;BME280;12195;55.790;37.572;2023-02-14T07:44:30;98902.22;;;3.84;76.02
20228;BME280;12195;55.790;37.572;2023-02-14T07:47:03;98927.89;;;3.92;75.40
20228;BME280;12195;55.790;37.572;2023-02-14T07:49:35;98931.53;;;4.08;74.97
20228;BME280;12195;55.790;37.572;2023-02-14T07:52:08;98913.37;;;4.28;74.39
20228;BME280;12195;55.790;37.572;2023-02-14T07:54:40;98918.72;;;4.25;73.83
20228;BME280;12195;55.790;37.572;2023-02-14T07:57:13;98918.05;;;4.40;73.96
20228;BME280;12195;55.790;37.572;2023-02-14T07:59:46;98911.17;;;4.39;73.20
20228;BME280;12195;55.790;37.572;2023-02-14T08:02:18;98917.16;;;4.41;72.95
20228;BME280;12195;55.790;37.572;2023-02-14T08:04:50;98922.72;;;4.52;73.10
20228;BME280;12195;55.790;37.572;2023-02-14T08:07:23;98924.92;;;4.61;71.92
20228;BME280;12195;55.790;37.572;2023-02-14T08:09:55;98923.05;;;4.64;71.54
20228;BME280;12195;55.790;37.572;2023-02-14T08:12:28;98937.95;;;4.79;71.96
20228;BME280;12195;55.790;37.572;2023-02-14T08:15:17;98930.32;;;4.76;71.12
20228;BME280;12195;55.790;37.572;2023-02-14T08:18:08;98925.87;;;4.78;70.33
20228;BME280;12195;55.790;37.572;2023-02-14T08:20:40;98917.44;;;4.73;70.13
20228;BME280;12195;55.790;37.572;2023-02-14T08:23:14;98932.88;;;4.58;70.24
20228;BME280;12195;55.790;37.572;2023-02-14T08:25:51;98934.31;;;4.45;70.52
20228;BME280;12195;55.790;37.572;2023-02-14T08:28:24;98940.70;;;4.16;70.93
20228;BME280;12195;55.790;37.572;2023-02-14T08:30:56;98947.97;;;4.08;71.74
20228;BME280;12195;55.790;37.572;2023-02-14T08:33:29;98948.34;;;3.99;72.16
20228;BME280;12195;55.790;37.572;2023-02-14T08:36:01;98946.78;;;3.95;72.68
20228;BME280;12195;55.790;37.572;2023-02-14T08:38:33;98956.17;;;4.19;73.11
20228;BME280;12195;55.790;37.572;2023-02-14T08:41:06;98969.45;;;4.12;72.79
20228;BME280;12195;55.790;37.572;2023-02-14T08:43:39;98974.80;;;4.09;72.92
20228;BME280;12195;55.790;37.572;2023-02-14T08:46:11;98972.85;;;4.14;73.23
20228;BME280;12195;55.790;37.572;2023-02-14T08:48:45;98975.39;;;4.15;72.68
20228;BME280;12195;55.790;37.572;2023-02-14T08:51:17;98983.52;;;4.28;72.27
20228;BME280;12195;55.790;37.572;2023-02-14T08:53:50;98988.09;;;4.43;72.07
20228;BME280;12195;55.790;37.572;2023-02-14T08:56:22;98984.25;;;4.31;72.08
20228;BME280;12195;55.790;37.572;2023-02-14T08:58:55;98996.00;;;4.40;71.60
20228;BME280;12195;55.790;37.572;2023-02-14T09:01:27;98995.02;;;4.42;71.31
20228;BME280;12195;55.790;37.572;2023-02-14T09:03:59;99018.31;;;4.65;71.36
20228;BME280;12195;55.790;37.572;2023-02-14T09:06:32;99017.68;;;4.80;70.31
20228;BME280;12195;55.790;37.572;2023-02-14T09:09:06;99016.94;;;4.97;69.63
20228;BME280;12195;55.790;37.572;2023-02-14T09:11:38;99012.84;;;4.91;69.35
20228;BME280;12195;55.790;37.572;2023-02-14T09:14:10;99026.19;;;4.84;69.51
20228;BME280;12195;55.790;37.572;2023-02-14T09:16:43;99014.41;;;4.75;70.17
20228;BME280;12195;55.790;37.572;2023-02-14T09:19:16;99021.38;;;4.75;71.55
20228;BME280;12195;55.790;37.572;2023-02-14T09:21:48;99038.09;;;4.89;71.34
20228;BME280;12195;55.790;37.572;2023-02-14T09:24:21;99040.16;;;4.81;70.06
20228;BME280;12195;55.790;37.572;2023-02-14T09:26:55;99020.73;;;4.70;70.76
20228;BME280;12195;55.790;37.572;2023-02-14T09:29:31;99037.04;;;4.73;70.08
20228;BME280;12195;55.790;37.572;2023-02-14T09:32:04;99041.66;;;4.67;69.68
20228;BME280;12195;55.790;37.572;2023-02-14T09:34:37;99037.80;;;4.75;70.45
20228;BME280;12195;55.790;37.572;2023-02-14T09:37:12;99035.09;;;4.78;68.92
20228;BME280;12195;55.790;37.572;2023-02-14T09:39:45;99050.75;;;4.77;68.41
20228;BME280;12195;55.790;37.572;2023-02-14T09:42:36;99037.38;;;4.66;68.69
20228;BME280;12195;55.790;37.572;2023-02-14T09:45:19;99044.38;;;4.64;69.89
20228;BME280;12195;55.790;37.572;2023-02-14T09:47:55;99054.59;;;4.68;68.30
20228;BME280;12195;55.790;37.572;2023-02-14T09:50:39;99049.39;;;4.68;68.52
20228;BME280;12195;55.790;37.572;2023-02-14T09:53:32;99065.67;;;4.52;68.39
20228;BME280;12195;55.790;37.572;2023-02-14T10:01:58;99075.89;;;4.56;67.99
20228;BME280;12195;55.790;37.572;2023-02-14T10:04:46;99071.41;;;4.60;67.50
20228;BME280;12195;55.790;37.572;2023-02-14T10:15:58;99092.57;;;4.29;67.35
20228;BME280;12195;55.790;37.572;2023-02-14T10:18:37;99099.33;;;4.12;67.12
20228;BME280;12195;55.790;37.572;2023-02-14T10:21:06;99108.63;;;3.96;67.60
20228;BME280;12195;55.790;37.572;2023-02-14T10:23:48;99104.11;;;3.78;68.14
20228;BME280;12195;55.790;37.572;2023-02-14T10:26:37;99136.17;;;3.77;68.26
20228;BME280;12195;55.790;37.572;2023-02-14T10:29:13;99123.19;;;3.77;68.07
20228;BME280;12195;55.790;37.572;2023-02-14T10:31:57;99129.50;;;3.70;69.05
20228;BME280;12195;55.790;37.572;2023-02-14T10:34:50;99142.03;;;3.82;68.68
20228;BME280;12195;55.790;37.572;2023-02-14T10:38:22;99116.34;;;3.97;68.50
20228;BME280;12195;55.790;37.572;2023-02-14T10:42:52;99143.31;;;4.16;67.04
20228;BME280;12195;55.790;37.572;2023-02-14T10:45:29;99125.63;;;4.26;67.48
20228;BME280;12195;55.790;37.572;2023-02-14T10:48:07;99144.06;;;4.41;65.60
20228;BME280;12195;55.790;37.572;2023-02-14T10:50:51;99141.77;;;4.34;65.43
20228;BME280;12195;55.790;37.572;2023-02-14T10:56:21;99138.73;;;4.23;64.43
20228;BME280;12195;55.790;37.572;2023-02-14T10:58:54;99150.70;;;4.27;64.04
20228;BME280;12195;55.790;37.572;2023-02-14T11:01:28;99159.62;;;4.20;63.66
20228;BME280;12195;55.790;37.572;2023-02-14T11:04:02;99150.55;;;4.08;63.71
20228;BME280;12195;55.790;37.572;2023-02-14T11:06:38;99160.03;;;4.09;63.59
20228;BME280;12195;55.790;37.572;2023-02-14T11:09:10;99183.45;;;4.08;63.87
20228;BME280;12195;55.790;37.572;2023-02-14T11:11:59;99181.77;;;4.30;63.33
20228;BME280;12195;55.790;37.572;2023-02-14T11:14:37;99203.73;;;4.21;62.59
20228;BME280;12195;55.790;37.572;2023-02-14T11:17:30;99186.56;;;4.17;61.95
20228;BME280;12195;55.790;37.572;2023-02-14T11:20:20;99171.28;;;4.10;61.71
20228;BME280;12195;55.790;37.572;2023-02-14T11:22:39;99179.76;;;3.92;62.92
20228;BME280;12195;55.790;37.572;2023-02-14T11:25:23;99194.58;;;3.88;62.91
20228;BME280;12195;55.790;37.572;2023-02-14T11:28:12;99171.84;;;3.72;62.38
20228;BME280;12195;55.790;37.572;2023-02-14T11:30:41;99184.87;;;3.70;62.32
20228;BME280;12195;55.790;37.572;2023-02-14T11:33:38;99200.06;;;3.81;62.41
20228;BME280;12195;55.790;37.572;2023-02-14T11:36:13;99217.80;;;3.93;61.92
20228;BME280;12195;55.790;37.572;2023-02-14T11:39:05;99198.16;;;4.09;61.33
20228;BME280;12195;55.790;37.572;2023-02-14T11:41:50;99200.78;;;4.30;59.81
20228;BME280;12195;55.790;37.572;2023-02-14T11:44:25;99197.71;;;4.21;59.88
20228;BME280;12195;55.790;37.572;2023-02-14T11:47:24;99217.84;;;4.37;59.53
20228;BME280;12195;55.790;37.572;2023-02-14T11:49:59;99205.88;;;4.33;59.11
20228;BME280;12195;55.790;37.572;2023-02-14T11:52:32;99202.45;;;4.33;59.04
20228;BME280;12195;55.790;37.572;2023-02-14T11:55:05;99219.11;;;4.27;59.29
20228;BME280;12195;55.790;37.572;2023-02-14T11:57:38;99207.70;;;4.31;59.52
20228;BME280;12195;55.790;37.572;2023-02-14T12:00:13;99212.33;;;4.23;59.12
20228;BME280;12195;55.790;37.572;2023-02-14T12:02:48;99219.51;;;4.17;59.56
20228;BME280;12195;55.790;37.572;2023-02-14T12:05:42;99262.70;;;4.19;60.09
20228;BME280;12195;55.790;37.572;2023-02-14T12:08:10;99220.58;;;4.11;59.94
20228;BME280;12195;55.790;37.572;2023-02-14T12:10:43;99243.20;;;4.08;59.61
20228;BME280;12195;55.790;37.572;2023-02-14T12:13:20;99234.23;;;4.16;59.76
20228;BME280;12195;55.790;37.572;2023-02-14T12:15:54;99233.17;;;4.22;59.65
20228;BME280;12195;55.790;37.572;2023-02-14T12:18:49;99232.50;;;4.17;59.88
20228;BME280;12195;55.790;37.572;2023-02-14T12:26:45;99248.60;;;4.26;59.96
20228;BME280;12195;55.790;37.572;2023-02-14T12:29:22;99246.43;;;4.37;60.44
20228;BME280;12195;55.790;37.572;2023-02-14T12:31:58;99259.32;;;4.40;59.97
20228;BME280;12195;55.790;37.572;2023-02-14T12:34:31;99273.55;;;4.53;60.00
20228;BME280;12195;55.790;37.572;2023-02-14T12:40:09;99293.13;;;4.85;58.81
20228;BME280;12195;55.790;37.572;2023-02-14T12:46:02;99306.48;;;4.76;58.70
20228;BME280;12195;55.790;37.572;2023-02-14T12:51:42;99299.42;;;4.33;59.45
20228;BME280;12195;55.790;37.572;2023-02-14T12:54:35;99317.45;;;4.38;59.89
20228;BME280;12195;55.790;37.572;2023-02-14T13:03:15;99342.62;;;3.87;59.92
20228;BME280;12195;55.790;37.572;2023-02-14T13:06:14;99335.02;;;3.82;59.79
20228;BME280;12195;55.790;37.572;2023-02-14T13:09:08;99323.94;;;3.77;60.36
20228;BME280;12195;55.790;37.572;2023-02-14T13:22:34;99357.72;;;4.26;59.98
20228;BME280;12195;55.790;37.572;2023-02-14T13:25:20;99367.16;;;4.29;60.05
20228;BME280;12195;55.790;37.572;2023-02-14T13:27:48;99369.88;;;4.49;59.97
20228;BME280;12195;55.790;37.572;2023-02-14T13:30:27;99369.67;;;4.55;58.62
20228;BME280;12195;55.790;37.572;2023-02-14T13:36:10;99372.36;;;4.29;59.23
20228;BME280;12195;55.790;37.572;2023-02-14T13:38:47;99403.95;;;4.17;59.92
20228;BME280;12195;55.790;37.572;2023-02-14T13:41:16;99403.67;;;4.00;60.57
20228;BME280;12195;55.790;37.572;2023-02-14T13:43:54;99392.88;;;3.86;60.42
20228;BME280;12195;55.790;37.572;2023-02-14T13:51:55;99410.39;;;3.53;61.72
20228;BME280;12195;55.790;37.572;2023-02-14T13:57:31;99410.89;;;3.37;62.09
20228;BME280;12195;55.790;37.572;2023-02-14T14:02:51;99419.95;;;3.24;61.83
20228;BME280;12195;55.790;37.572;2023-02-14T14:11:10;99441.02;;;3.13;63.01
20228;BME280;12195;55.790;37.572;2023-02-14T14:14:03;99452.41;;;3.08;63.18
20228;BME280;12195;55.790;37.572;2023-02-14T14:16:38;99463.38;;;3.17;62.87
20228;BME280;12195;55.790;37.572;2023-02-14T14:22:12;99464.14;;;2.90;63.68
20228;BME280;12195;55.790;37.572;2023-02-14T14:25:00;99479.95;;;2.81;64.24
20228;BME280;12195;55.790;37.572;2023-02-14T14:27:32;99479.09;;;2.81;64.76
20228;BME280;12195;55.790;37.572;2023-02-14T14:30:20;99493.17;;;2.72;64.76
20228;BME280;12195;55.790;37.572;2023-02-14T14:32:42;99484.64;;;2.69;65.22
20228;BME280;12195;55.790;37.572;2023-02-14T14:35:17;99490.61;;;2.71;65.11
20228;BME280;12195;55.790;37.572;2023-02-14T14:37:55;99493.20;;;2.71;65.00
20228;BME280;12195;55.790;37.572;2023-02-14T14:40:36;99505.19;;;2.75;65.45
20228;BME280;12195;55.790;37.572;2023-02-14T14:43:15;99518.33;;;2.69;65.61
20228;BME280;12195;55.790;37.572;2023-02-14T14:45:49;99502.70;;;2.70;65.44
20228;BME280;12195;55.790;37.572;2023-02-14T14:48:28;99495.84;;;2.69;65.30
20228;BME280;12195;55.790;37.572;2023-02-14T14:51:04;99507.17;;;2.65;65.59
20228;BME280;12195;55.790;37.572;2023-02-14T14:53:43;99510.70;;;2.63;65.85
20228;BME280;12195;55.790;37.572;2023-02-14T14:56:26;99520.27;;;2.61;65.92
20228;BME280;12195;55.790;37.572;2023-02-14T15:01:55;99532.47;;;2.56;66.57
20228;BME280;12195;55.790;37.572;2023-02-14T15:04:29;99525.59;;;2.55;66.82
20228;BME280;12195;55.790;37.572;2023-02-14T15:07:25;99531.59;;;2.57;67.10
20228;BME280;12195;55.790;37.572;2023-02-14T15:09:59;99531.67;;;2.54;67.51
20228;BME280;12195;55.790;37.572;2023-02-14T15:12:32;99542.06;;;2.52;67.55
20228;BME280;12195;55.790;37.572;2023-02-14T15:15:23;99542.13;;;2.49;68.33
20228;BME280;12195;55.790;37.572;2023-02-14T15:17:55;99555.95;;;2.50;68.21
20228;BME280;12195;55.790;37.572;2023-02-14T15:20:28;99549.21;;;2.43;68.74
20228;BME280;12195;55.790;37.572;2023-02-14T15:23:00;99558.77;;;2.41;68.80
20228;BME280;12195;55.790;37.572;2023-02-14T15:25:35;99568.20;;;2.43;69.07
20228;BME280;12195;55.790;37.572;2023-02-14T15:28:16;99569.94;;;2.43;69.12
20228;BME280;12195;55.790;37.572;2023-02-14T15:30:45;99572.59;;;2.40;69.47
20228;BME280;12195;55.790;37.572;2023-02-14T15:33:20;99575.34;;;2.34;69.81
20228;BME280;12195;55.790;37.572;2023-02-14T15:35:53;99573.71;;;2.30;70.17
20228;BME280;12195;55.790;37.572;2023-02-14T15:38:27;99584.01;;;2.33;70.07
20228;BME280;12195;55.790;37.572;2023-02-14T15:40:59;99584.07;;;2.30;70.54
20228;BME280;12195;55.790;37.572;2023-02-14T15:43:37;99596.77;;;2.40;70.13